Logo AVAMET
Benvolgut visitant, si us plau, ingressa Recuperar contrasenya
AVAMET paisatges

Peníscola Gran Hotel Peñiscola

Dades diàries. Acumulats / Últims 30 dies disponibles

Data Temperatura (°C) Humitat rel. (%) Pressió rel. (hPa) Vent (km/h) Precipitació
Mínima Mitjana Màxima Amplitud
tèrmica
Mínima Mitjana Màxima Mínima Mitjana Màxima Predom. Mitjana Ràfega
màxima
Total
(mm)
Índex-n
Mínima Mitjana Màxima Mínima Mitjana Màxima n
0 a 1
P0 max
mm 5'
Dades mensuals acumulades fins l'últim dia disponible
04/2020 6,3 9,2 10,4 12,5 13,6 16,4 17,5 11,2 49 84 95 1.008 1.015 1.024   4,2 53,1 2,0
Dades anuals acumulades fins l'últim dia disponible
2020 2,1 8,7 15,4 12,4 11,1 16,8 24,7 22,6 0 76 95 992 1.020 1.033   1,3 72,4 94,2
Últims 30 dies disponibles
06-04-2020 9,7     13,5     17,4 7,7 75 85 92 1.019 1.021 1.024 OSO 2,7 22,5 0,0
05-04-2020 8,0     12,1     17,5 9,5 76 85 91 1.018 1.019 1.020 OSO 2,4 20,9 0,0
04-04-2020 6,3     12,3     17,4 11,1 70 81 88 1.017 1.018 1.019 SSO 2,8 24,1 0,0
03-04-2020 10,3     12,8     17,5 7,2 49 73 91 1.012 1.014 1.017 SO 4,6 22,5 2,0
02-04-2020 10,4     12,3     14,9 4,5 72 86 93 1.009 1.010 1.013 OSO 3,4 27,4 0,0
01-04-2020 10,3     11,8     13,6 3,3 92 94 95 1.008 1.010 1.012 OSO 9,1 53,1 0,58 1,90
31-03-2020 6,7     9,6     12,6 5,9 0 88 93 1.008 1.010 1.013 ONO 6,8 45,1 0,42 1,10
30-03-2020 7,5     10,6     14,2 6,7 43 63 81 1.010 1.012 1.013 N 2,1 29,0 0,4
29-03-2020 10,9     14,3     17,8 6,9 55 69 81 1.011 1.013 1.016 SO 4,0 25,7 0,0
28-03-2020 7,8     13,6     18,8 11,0 46 63 81 1.015 1.016 1.017 SSO 2,8 19,3 0,0
27-03-2020 7,7     10,8     15,6 7,9 53 72 87 1.011 1.012 1.015 O 3,4 24,1 0,0
26-03-2020 6,3     10,1     15,1 8,8 0 74 87 1.005 1.008 1.012 ONO 5,9 37,0 0,8
25-03-2020 9,1     10,3     12,8 3,7 0 79 89 1.012 1.015 1.017 ONO 0,6 29,0 2,4 0,58 0,60
24-03-2020 12,2     13,7     15,0 2,8 71 80 89 1.016 1.017 1.018 N 10,5 41,8 1,4 0,20
23-03-2020 12,3     14,4     17,2 4,9 83 88 93 1.013 1.015 1.018 ONO 4,0 30,6
22-03-2020 9,4     12,3     15,8 6,4 78 87 93 1.010 1.011 1.014 NO 0,1 22,5 14,0 0,36 1,50
21-03-2020 9,5     13,0     16,6 7,1 67 81 89 1.010 1.013 1.016 SO 1,1 19,3 0,0
20-03-2020 10,8     13,4     16,6 5,8 74 85 90 1.016 1.017 1.019 OSO 1,1 20,9 0,0
19-03-2020 8,6     12,7     17,2 8,6 70 84 91 1.019 1.021 1.024 OSO 0,1 12,9 0,0
18-03-2020 10,1     13,1     16,0 5,9 74 86 91 1.023 1.025 1.027 O 0,6 17,7 0,0
17-03-2020 12,5     14,3     15,1 2,6 86 91 94 1.018 1.023 1.028 N 8,1 41,8 0,42 0,40
16-03-2020 14,4     14,9     15,6 1,2 82 89 93 1.010 1.012 1.018 NNO 1,4 35,4
15-03-2020 8,8     13,1     15,8 7,0 81 87 91 1.013 1.016 1.018 OSO 1,2 29,0 0,0
14-03-2020 10,2     13,5     16,5 6,3 65 77 87 1.017 1.018 1.019 OSO 0,4 22,5 0,0
13-03-2020 12,7     15,2     19,7 7,0 58 77 91 1.017 1.018 1.020 OSO 0,0 9,7 0,0
12-03-2020 9,0     13,3     17,3 8,3 66 83 91 1.016 1.018 1.020 SSO 0,0 9,7 0,0
11-03-2020 9,2     14,5     20,4 11,2 49 74 87 1.020 1.021 1.022 SO 0,0 14,5 0,0
10-03-2020 10,7     14,0     15,3 4,6 44 67 82 1.020 1.022 1.024 OSO 1,3 38,6 0,0
09-03-2020 12,2     16,3     20,4 8,2 29 45 66 1.017 1.019 1.021 NO 2,0 41,8 0,0
08-03-2020 9,3     13,5     16,2 6,9 54 68 86 1.019 1.020 1.022 OSO 0,2 22,5 0,0
Últims 13 mesos disponibles
03/2020 6,3 10,4 15,4 13,8 12,6 17,3 24,1 17,8 43 72 91 1.002 1.015 1.025 OSO 2,5 69,2
02/2020 5,8 9,1 13,0 13,4 14,2 18,1 24,7 18,9 46 74 91 1.010 1.023 1.031 OSO 0,4 57,9 0,0
01/2020 2,1 6,4 11,8 10,2 11,1 15,2 21,2 19,1 68 80 91 1.017 1.023 1.030 OSO 0,5 72,4 73,2
11/2019 5,8 11,0 17,3 15,0 15,6 19,1 25,6 19,8 43 57 83 995 1.007 1.015 61,0 3,0
10/2019 10,4 15,8 21,1 19,9 16,6 24,1 28,6 18,2 47 68 85 1.005 1.014 1.020 39,0
09/2019 15,3 19,4 22,5 23,4 23,9 27,3 31,4 16,1 54 71 85 1.008 1.016 1.024 0,1 53,0 45,6
08/2019 19,0 21,9 26,2 25,7 26,8 29,5 31,6 12,6 53 72 80 1.009 1.014 1.018 45,0 70,2
07/2019 19,1 22,0 25,2 26,0 27,6 30,0 32,6 13,5 47 67 82 1.004 1.012 1.019 37,0 0,2
06/2019 12,3 17,5 22,5 21,3 21,0 25,1 30,7 18,4 48 68 80 1.008 1.013 1.020 S 0,2 39,0 4,4
05/2019 8,3 13,9 17,3 17,9 18,2 21,9 28,0 19,7 34 63 83 1.003 1.013 1.022 48,0 26,4
04/2019 5,1 11,1 14,9 15,0 12,1 19,0 23,0 17,9 47 66 84 997 1.011 1.023 0,3 56,0 21,8
03/2019 5,7 9,0 13,2 13,7 14,4 18,3 21,4 15,7 46 61 81 1.008 1.021 1.028 48,0 5,6
02/2019 2,3 6,2 10,8 11,0 9,3 15,8 20,9 18,6 37 69 82 991 1.022 1.032 71,0 0,0
Tots els anys disponibles
2019 2,3 13,7 26,2 17,8 9,3 22,0 32,6 30,3 34 66 92 991 1.015 1.032 0,1 71,0
2018 -1,8 14,1 26,7 18,0 7,4 22,0 35,1 36,9 35 68 93 991 1.014 1.033 0,5 74,0 371,8
2017 1,2 13,9 25,2 17,9 7,3 22,0 37,3 36,1 31 67 93 993 1.017 1.034 0,0 68,0 110,4
2016 1,9 14,1 24,9 18,1 10,3 22,0 32,4 30,5 36 66 92 992 1.016 1.035 63,0 274,2
2015 1,2 12,3 27,8 16,2 8,6 20,0 31,6 30,4 33 68 94 993 1.019 1.036 88,0 296,7
Temperatura (°C)
Humitat relativa (%)
Velocitat del vent i ràfega màxima (km/h)
Direcció del vent (°)
Pressió (hPa)
Precipitació (mm)
Nota sobre les dades: s'avisa a l'usuari de la provisionalitat i no oficialitat d'aquestes dades
Logo AVAMET blanc
Web allotjada a Sollutia
Llicència de Creative CommonsLa web d'AVAMET i els seus continguts estan subjectes a una llicència de
Reconeixement - No Comercial - Compartir igual
Últimes estacions:  Benifaió (Inforatge), Altea - Com. Regants (Soci), Almoines (Inforatge), Beniparrell (Inforatge), Albal (Inforatge), La Vilavella (Soci), la Serratella (soci) - - -